sensor_id;sensor_type;location;lat;lon;timestamp;pressure;altitude;pressure_sealevel;temperature;humidity
69689;BME280;56932;38.402;-96.176;2023-02-17T00:00:52;98281.63;;;20.65;17.30
69689;BME280;56932;38.402;-96.176;2023-02-17T00:03:18;98284.87;;;20.08;17.95
69689;BME280;56932;38.402;-96.176;2023-02-17T00:05:43;98291.27;;;19.87;18.60
69689;BME280;56932;38.402;-96.176;2023-02-17T00:08:09;98299.22;;;20.44;18.62
69689;BME280;56932;38.402;-96.176;2023-02-17T00:10:35;98298.75;;;19.41;19.24
69689;BME280;56932;38.402;-96.176;2023-02-17T00:13:00;98299.59;;;19.97;19.86
69689;BME280;56932;38.402;-96.176;2023-02-17T00:15:25;98307.48;;;20.46;20.38
69689;BME280;56932;38.402;-96.176;2023-02-17T00:17:51;98315.53;;;20.02;21.92
69689;BME280;56932;38.402;-96.176;2023-02-17T00:20:17;98318.37;;;20.29;21.87
69689;BME280;56932;38.402;-96.176;2023-02-17T00:22:42;98322.07;;;19.77;22.50
69689;BME280;56932;38.402;-96.176;2023-02-17T00:25:08;98327.47;;;19.80;23.28
69689;BME280;56932;38.402;-96.176;2023-02-17T00:27:33;98334.41;;;20.01;22.86
69689;BME280;56932;38.402;-96.176;2023-02-17T00:29:59;98341.37;;;20.66;22.25
69689;BME280;56932;38.402;-96.176;2023-02-17T00:32:24;98343.79;;;20.47;22.15
69689;BME280;56932;38.402;-96.176;2023-02-17T00:34:51;98352.70;;;20.39;21.73
69689;BME280;56932;38.402;-96.176;2023-02-17T00:37:15;98353.79;;;20.55;21.63
69689;BME280;56932;38.402;-96.176;2023-02-17T00:39:40;98354.15;;;20.48;21.49
69689;BME280;56932;38.402;-96.176;2023-02-17T00:42:06;98355.48;;;20.64;21.28
69689;BME280;56932;38.402;-96.176;2023-02-17T00:44:32;98360.09;;;20.67;21.22
69689;BME280;56932;38.402;-96.176;2023-02-17T00:46:57;98360.43;;;20.21;21.23
69689;BME280;56932;38.402;-96.176;2023-02-17T00:49:26;98368.16;;;19.93;21.15
69689;BME280;56932;38.402;-96.176;2023-02-17T00:51:48;98374.40;;;20.27;20.95
69689;BME280;56932;38.402;-96.176;2023-02-17T00:54:13;98384.75;;;20.17;21.02
69689;BME280;56932;38.402;-96.176;2023-02-17T00:56:39;98387.35;;;19.68;20.48
69689;BME280;56932;38.402;-96.176;2023-02-17T00:59:04;98395.57;;;19.95;20.48
69689;BME280;56932;38.402;-96.176;2023-02-17T01:01:29;98400.28;;;19.92;20.33
69689;BME280;56932;38.402;-96.176;2023-02-17T01:03:54;98407.35;;;19.84;20.25
69689;BME280;56932;38.402;-96.176;2023-02-17T01:06:23;98409.27;;;20.14;20.03
69689;BME280;56932;38.402;-96.176;2023-02-17T01:08:46;98410.86;;;20.05;19.81
69689;BME280;56932;38.402;-96.176;2023-02-17T01:11:16;98418.29;;;20.44;19.69
69689;BME280;56932;38.402;-96.176;2023-02-17T01:13:37;98421.33;;;19.55;19.76
69689;BME280;56932;38.402;-96.176;2023-02-17T01:16:03;98431.54;;;19.54;19.88
69689;BME280;56932;38.402;-96.176;2023-02-17T01:18:28;98430.34;;;19.99;19.48
69689;BME280;56932;38.402;-96.176;2023-02-17T01:20:53;98439.82;;;19.84;19.63
69689;BME280;56932;38.402;-96.176;2023-02-17T01:23:19;98436.89;;;20.18;19.43
69689;BME280;56932;38.402;-96.176;2023-02-17T01:25:46;98437.59;;;20.16;19.33
69689;BME280;56932;38.402;-96.176;2023-02-17T01:28:14;98441.17;;;20.02;19.33
69689;BME280;56932;38.402;-96.176;2023-02-17T01:30:36;98444.91;;;19.47;19.34
69689;BME280;56932;38.402;-96.176;2023-02-17T01:33:01;98444.04;;;19.85;19.14
69689;BME280;56932;38.402;-96.176;2023-02-17T01:35:27;98450.69;;;20.10;19.01
69689;BME280;56932;38.402;-96.176;2023-02-17T01:37:52;98455.27;;;19.99;18.86
69689;BME280;56932;38.402;-96.176;2023-02-17T01:40:18;98462.93;;;19.87;19.02
69689;BME280;56932;38.402;-96.176;2023-02-17T01:42:43;98462.02;;;19.82;18.68
69689;BME280;56932;38.402;-96.176;2023-02-17T01:47:35;98469.45;;;19.06;19.11
69689;BME280;56932;38.402;-96.176;2023-02-17T01:50:00;98466.24;;;19.66;18.86
69689;BME280;56932;38.402;-96.176;2023-02-17T01:52:26;98467.20;;;19.74;18.71
69689;BME280;56932;38.402;-96.176;2023-02-17T01:54:55;98467.96;;;19.95;18.67
69689;BME280;56932;38.402;-96.176;2023-02-17T01:57:20;98472.53;;;20.23;18.45
69689;BME280;56932;38.402;-96.176;2023-02-17T01:59:42;98471.94;;;19.86;18.69
69689;BME280;56932;38.402;-96.176;2023-02-17T02:02:08;98473.07;;;20.13;18.47
69689;BME280;56932;38.402;-96.176;2023-02-17T02:04:36;98472.57;;;18.98;19.09
69689;BME280;56932;38.402;-96.176;2023-02-17T02:06:59;98477.13;;;19.30;19.14
69689;BME280;56932;38.402;-96.176;2023-02-17T02:09:29;98475.58;;;19.16;18.90
69689;BME280;56932;38.402;-96.176;2023-02-17T02:11:51;98475.02;;;18.96;19.07
69689;BME280;56932;38.402;-96.176;2023-02-17T02:14:16;98470.49;;;18.69;19.57
69689;BME280;56932;38.402;-96.176;2023-02-17T02:16:46;98471.16;;;18.06;19.94
69689;BME280;56932;38.402;-96.176;2023-02-17T02:19:17;98478.60;;;19.62;19.02
69689;BME280;56932;38.402;-96.176;2023-02-17T02:21:40;98478.01;;;18.23;20.01
69689;BME280;56932;38.402;-96.176;2023-02-17T02:24:11;98482.60;;;18.31;19.99
69689;BME280;56932;38.402;-96.176;2023-02-17T02:29:03;98490.45;;;18.53;19.87
69689;BME280;56932;38.402;-96.176;2023-02-17T02:31:26;98500.72;;;18.93;19.61
69689;BME280;56932;38.402;-96.176;2023-02-17T02:33:43;98507.68;;;18.39;19.69
69689;BME280;56932;38.402;-96.176;2023-02-17T02:36:10;98517.25;;;18.84;19.35
69689;BME280;56932;38.402;-96.176;2023-02-17T02:38:38;98525.09;;;19.47;18.96
69689;BME280;56932;38.402;-96.176;2023-02-17T02:41:02;98528.19;;;18.78;19.45
69689;BME280;56932;38.402;-96.176;2023-02-17T02:43:23;98534.34;;;19.18;19.21
69689;BME280;56932;38.402;-96.176;2023-02-17T02:45:47;98542.53;;;19.54;18.83
69689;BME280;56932;38.402;-96.176;2023-02-17T02:48:13;98543.93;;;19.00;19.75
69689;BME280;56932;38.402;-96.176;2023-02-17T02:50:52;98560.01;;;19.46;19.16
69689;BME280;56932;38.402;-96.176;2023-02-17T02:55:40;98571.39;;;19.97;18.51
69689;BME280;56932;38.402;-96.176;2023-02-17T02:58:02;98575.21;;;19.20;19.15
69689;BME280;56932;38.402;-96.176;2023-02-17T03:00:26;98583.68;;;19.30;19.57
69689;BME280;56932;38.402;-96.176;2023-02-17T03:02:50;98584.42;;;18.59;20.03
69689;BME280;56932;38.402;-96.176;2023-02-17T03:05:14;98595.95;;;19.78;19.50
69689;BME280;56932;38.402;-96.176;2023-02-17T03:07:39;98604.21;;;19.58;19.05
69689;BME280;56932;38.402;-96.176;2023-02-17T03:10:03;98610.58;;;19.98;19.65
69689;BME280;56932;38.402;-96.176;2023-02-17T03:12:28;98613.45;;;19.55;19.67
69689;BME280;56932;38.402;-96.176;2023-02-17T03:14:57;98614.18;;;20.32;18.83
69689;BME280;56932;38.402;-96.176;2023-02-17T03:17:19;98614.24;;;20.32;18.91
69689;BME280;56932;38.402;-96.176;2023-02-17T03:19:44;98613.34;;;21.11;18.13
69689;BME280;56932;38.402;-96.176;2023-02-17T03:22:16;98615.88;;;21.07;18.10
69689;BME280;56932;38.402;-96.176;2023-02-17T03:24:36;98622.49;;;20.20;18.28
69689;BME280;56932;38.402;-96.176;2023-02-17T03:27:01;98619.15;;;20.38;18.73
69689;BME280;56932;38.402;-96.176;2023-02-17T03:29:26;98620.94;;;21.71;17.99
69689;BME280;56932;38.402;-96.176;2023-02-17T03:31:52;98622.44;;;21.36;17.90
69689;BME280;56932;38.402;-96.176;2023-02-17T03:34:17;98630.90;;;20.99;18.30
69689;BME280;56932;38.402;-96.176;2023-02-17T03:36:43;98632.86;;;21.16;18.10
69689;BME280;56932;38.402;-96.176;2023-02-17T03:39:08;98639.75;;;21.19;18.16
69689;BME280;56932;38.402;-96.176;2023-02-17T03:41:34;98642.14;;;20.96;17.90
69689;BME280;56932;38.402;-96.176;2023-02-17T03:43:59;98644.06;;;20.96;17.98
69689;BME280;56932;38.402;-96.176;2023-02-17T03:46:25;98651.01;;;21.54;17.67
69689;BME280;56932;38.402;-96.176;2023-02-17T03:48:50;98650.95;;;21.56;17.55
69689;BME280;56932;38.402;-96.176;2023-02-17T03:51:18;98652.50;;;20.90;17.73
69689;BME280;56932;38.402;-96.176;2023-02-17T03:53:42;98653.42;;;20.80;17.58
69689;BME280;56932;38.402;-96.176;2023-02-17T03:56:07;98654.17;;;21.06;17.51
69689;BME280;56932;38.402;-96.176;2023-02-17T03:58:33;98655.13;;;21.05;17.40
69689;BME280;56932;38.402;-96.176;2023-02-17T04:00:58;98650.91;;;21.46;17.06
69689;BME280;56932;38.402;-96.176;2023-02-17T04:03:24;98658.29;;;21.17;17.19
69689;BME280;56932;38.402;-96.176;2023-02-17T04:05:49;98659.03;;;20.35;17.53
69689;BME280;56932;38.402;-96.176;2023-02-17T04:08:15;98659.17;;;21.25;17.27
69689;BME280;56932;38.402;-96.176;2023-02-17T04:10:40;98658.69;;;20.78;17.12
69689;BME280;56932;38.402;-96.176;2023-02-17T04:13:06;98657.62;;;21.05;17.23
69689;BME280;56932;38.402;-96.176;2023-02-17T04:15:32;98658.13;;;20.78;17.15
69689;BME280;56932;38.402;-96.176;2023-02-17T04:17:57;98660.77;;;21.03;17.14
69689;BME280;56932;38.402;-96.176;2023-02-17T04:20:23;98660.21;;;20.75;17.07
69689;BME280;56932;38.402;-96.176;2023-02-17T04:22:48;98666.97;;;21.10;16.95
69689;BME280;56932;38.402;-96.176;2023-02-17T04:25:14;98667.76;;;21.05;16.97
69689;BME280;56932;38.402;-96.176;2023-02-17T04:27:39;98663.98;;;20.25;16.95
69689;BME280;56932;38.402;-96.176;2023-02-17T04:30:06;98665.28;;;20.89;16.94
69689;BME280;56932;38.402;-96.176;2023-02-17T04:32:30;98667.47;;;20.60;17.09
69689;BME280;56932;38.402;-96.176;2023-02-17T04:34:56;98670.80;;;20.53;17.11
69689;BME280;56932;38.402;-96.176;2023-02-17T04:37:21;98678.70;;;20.58;17.05
69689;BME280;56932;38.402;-96.176;2023-02-17T04:39:47;98679.95;;;20.60;17.00
69689;BME280;56932;38.402;-96.176;2023-02-17T04:42:12;98684.91;;;20.63;16.95
69689;BME280;56932;38.402;-96.176;2023-02-17T04:44:38;98682.89;;;19.82;17.09
69689;BME280;56932;38.402;-96.176;2023-02-17T04:47:04;98685.48;;;19.98;17.26
69689;BME280;56932;38.402;-96.176;2023-02-17T04:49:29;98685.26;;;20.40;16.97
69689;BME280;56932;38.402;-96.176;2023-02-17T04:51:55;98687.95;;;20.55;16.96
69689;BME280;56932;38.402;-96.176;2023-02-17T04:54:20;98688.99;;;20.17;17.29
69689;BME280;56932;38.402;-96.176;2023-02-17T04:56:46;98698.76;;;20.28;16.93
69689;BME280;56932;38.402;-96.176;2023-02-17T04:59:11;98703.85;;;20.73;16.86
69689;BME280;56932;38.402;-96.176;2023-02-17T05:01:37;98705.07;;;19.47;17.08
69689;BME280;56932;38.402;-96.176;2023-02-17T05:04:02;98711.15;;;20.33;16.79
69689;BME280;56932;38.402;-96.176;2023-02-17T05:06:28;98712.10;;;19.98;17.00
69689;BME280;56932;38.402;-96.176;2023-02-17T05:08:53;98714.70;;;20.04;16.91
69689;BME280;56932;38.402;-96.176;2023-02-17T05:11:19;98719.08;;;20.44;16.76
69689;BME280;56932;38.402;-96.176;2023-02-17T05:13:45;98724.50;;;20.13;16.80
69689;BME280;56932;38.402;-96.176;2023-02-17T05:16:10;98734.53;;;19.87;17.21
69689;BME280;56932;38.402;-96.176;2023-02-17T05:18:36;98727.84;;;19.63;16.89
69689;BME280;56932;38.402;-96.176;2023-02-17T05:21:01;98730.59;;;19.86;16.86
69689;BME280;56932;38.402;-96.176;2023-02-17T05:23:27;98734.02;;;19.86;16.84
69689;BME280;56932;38.402;-96.176;2023-02-17T05:25:52;98735.39;;;19.72;16.89
69689;BME280;56932;38.402;-96.176;2023-02-17T05:28:18;98733.67;;;19.65;17.07
69689;BME280;56932;38.402;-96.176;2023-02-17T05:30:43;98735.04;;;19.64;16.92
69689;BME280;56932;38.402;-96.176;2023-02-17T05:33:09;98736.66;;;20.38;16.71
69689;BME280;56932;38.402;-96.176;2023-02-17T05:35:35;98739.27;;;19.68;16.82
69689;BME280;56932;38.402;-96.176;2023-02-17T05:38:00;98739.95;;;19.29;17.18
69689;BME280;56932;38.402;-96.176;2023-02-17T05:40:26;98741.88;;;19.88;16.87
69689;BME280;56932;38.402;-96.176;2023-02-17T05:42:51;98740.67;;;19.56;16.80
69689;BME280;56932;38.402;-96.176;2023-02-17T05:45:17;98740.80;;;19.96;16.81
69689;BME280;56932;38.402;-96.176;2023-02-17T05:47:42;98739.52;;;19.62;16.74
69689;BME280;56932;38.402;-96.176;2023-02-17T05:50:08;98737.36;;;19.53;17.03
69689;BME280;56932;38.402;-96.176;2023-02-17T05:52:34;98738.89;;;18.99;17.11
69689;BME280;56932;38.402;-96.176;2023-02-17T05:54:59;98741.03;;;19.85;16.71
69689;BME280;56932;38.402;-96.176;2023-02-17T05:57:25;98737.05;;;18.64;17.66
69689;BME280;56932;38.402;-96.176;2023-02-17T05:59:50;98737.87;;;18.25;18.03
69689;BME280;56932;38.402;-96.176;2023-02-17T06:02:16;98740.69;;;18.35;17.98
69689;BME280;56932;38.402;-96.176;2023-02-17T06:04:42;98736.75;;;17.66;18.02
69689;BME280;56932;38.402;-96.176;2023-02-17T06:07:06;98739.63;;;18.47;17.70
69689;BME280;56932;38.402;-96.176;2023-02-17T06:09:32;98742.80;;;18.10;18.28
69689;BME280;56932;38.402;-96.176;2023-02-17T06:11:58;98742.55;;;18.44;18.09
69689;BME280;56932;38.402;-96.176;2023-02-17T06:14:23;98744.90;;;18.18;18.33
69689;BME280;56932;38.402;-96.176;2023-02-17T06:16:49;98739.91;;;17.76;18.69
69689;BME280;56932;38.402;-96.176;2023-02-17T06:19:14;98739.77;;;18.22;18.42
69689;BME280;56932;38.402;-96.176;2023-02-17T06:21:40;98738.73;;;17.75;18.48
69689;BME280;56932;38.402;-96.176;2023-02-17T06:24:05;98740.17;;;18.41;18.39
69689;BME280;56932;38.402;-96.176;2023-02-17T06:26:31;98743.21;;;18.40;18.30
69689;BME280;56932;38.402;-96.176;2023-02-17T06:28:56;98745.08;;;18.88;18.15
69689;BME280;56932;38.402;-96.176;2023-02-17T06:31:22;98741.31;;;18.57;18.43
69689;BME280;56932;38.402;-96.176;2023-02-17T06:33:47;98742.65;;;18.67;18.40
69689;BME280;56932;38.402;-96.176;2023-02-17T06:36:13;98737.57;;;18.91;18.27
69689;BME280;56932;38.402;-96.176;2023-02-17T06:38:38;98735.64;;;18.13;18.37
69689;BME280;56932;38.402;-96.176;2023-02-17T06:41:04;98736.30;;;18.70;18.19
69689;BME280;56932;38.402;-96.176;2023-02-17T06:43:29;98741.03;;;19.22;18.17
69689;BME280;56932;38.402;-96.176;2023-02-17T06:45:55;98742.45;;;19.18;18.25
69689;BME280;56932;38.402;-96.176;2023-02-17T06:48:20;98740.26;;;19.00;18.22
69689;BME280;56932;38.402;-96.176;2023-02-17T06:50:48;98739.26;;;18.65;18.34
69689;BME280;56932;38.402;-96.176;2023-02-17T06:53:11;98738.41;;;18.85;18.38
69689;BME280;56932;38.402;-96.176;2023-02-17T06:55:37;98741.05;;;18.65;18.19
69689;BME280;56932;38.402;-96.176;2023-02-17T06:58:02;98740.18;;;18.82;18.24
69689;BME280;56932;38.402;-96.176;2023-02-17T07:00:28;98740.87;;;18.87;18.53
69689;BME280;56932;38.402;-96.176;2023-02-17T07:02:54;98744.58;;;19.01;18.17
69689;BME280;56932;38.402;-96.176;2023-02-17T07:05:19;98744.10;;;19.24;18.13
69689;BME280;56932;38.402;-96.176;2023-02-17T07:07:44;98742.03;;;18.63;18.44
69689;BME280;56932;38.402;-96.176;2023-02-17T07:10:11;98746.10;;;18.89;18.25
69689;BME280;56932;38.402;-96.176;2023-02-17T07:12:36;98746.10;;;18.72;18.38
69689;BME280;56932;38.402;-96.176;2023-02-17T07:15:01;98743.02;;;18.78;18.64
69689;BME280;56932;38.402;-96.176;2023-02-17T07:17:27;98740.00;;;19.03;18.44
69689;BME280;56932;38.402;-96.176;2023-02-17T07:19:52;98737.20;;;18.57;18.47
69689;BME280;56932;38.402;-96.176;2023-02-17T07:22:18;98736.82;;;19.33;17.95
69689;BME280;56932;38.402;-96.176;2023-02-17T07:24:43;98735.00;;;18.96;17.82
69689;BME280;56932;38.402;-96.176;2023-02-17T07:27:09;98730.64;;;19.83;17.57
69689;BME280;56932;38.402;-96.176;2023-02-17T07:29:35;98732.70;;;19.01;17.88
69689;BME280;56932;38.402;-96.176;2023-02-17T07:32:00;98732.38;;;19.60;17.62
69689;BME280;56932;38.402;-96.176;2023-02-17T07:34:25;98730.84;;;19.83;17.32
69689;BME280;56932;38.402;-96.176;2023-02-17T07:36:51;98735.26;;;19.27;17.47
69689;BME280;56932;38.402;-96.176;2023-02-17T07:39:16;98734.00;;;19.57;17.57
69689;BME280;56932;38.402;-96.176;2023-02-17T07:41:42;98738.57;;;19.67;16.87
69689;BME280;56932;38.402;-96.176;2023-02-17T07:44:08;98736.11;;;19.77;17.33
69689;BME280;56932;38.402;-96.176;2023-02-17T07:46:34;98739.69;;;20.21;16.77
69689;BME280;56932;38.402;-96.176;2023-02-17T07:48:59;98738.69;;;20.45;16.69
69689;BME280;56932;38.402;-96.176;2023-02-17T07:51:24;98740.58;;;20.59;16.60
69689;BME280;56932;38.402;-96.176;2023-02-17T07:53:50;98745.43;;;21.28;16.11
69689;BME280;56932;38.402;-96.176;2023-02-17T07:56:16;98748.08;;;21.37;16.01
69689;BME280;56932;38.402;-96.176;2023-02-17T07:58:42;98748.12;;;20.21;16.51
69689;BME280;56932;38.402;-96.176;2023-02-17T08:01:07;98750.29;;;21.19;16.03
69689;BME280;56932;38.402;-96.176;2023-02-17T08:03:32;98747.90;;;21.14;16.04
69689;BME280;56932;38.402;-96.176;2023-02-17T08:05:58;98746.54;;;20.60;16.31
69689;BME280;56932;38.402;-96.176;2023-02-17T08:08:23;98751.80;;;21.15;15.96
69689;BME280;56932;38.402;-96.176;2023-02-17T08:10:48;98754.31;;;20.73;16.09
69689;BME280;56932;38.402;-96.176;2023-02-17T08:13:14;98760.43;;;21.09;15.79
69689;BME280;56932;38.402;-96.176;2023-02-17T08:15:39;98765.84;;;20.25;16.10
69689;BME280;56932;38.402;-96.176;2023-02-17T08:18:05;98764.20;;;20.83;16.06
69689;BME280;56932;38.402;-96.176;2023-02-17T08:20:31;98765.03;;;21.28;15.89
69689;BME280;56932;38.402;-96.176;2023-02-17T08:22:56;98766.87;;;20.73;15.94
69689;BME280;56932;38.402;-96.176;2023-02-17T08:25:22;98771.06;;;20.95;15.73
69689;BME280;56932;38.402;-96.176;2023-02-17T08:27:47;98773.24;;;20.55;15.82
69689;BME280;56932;38.402;-96.176;2023-02-17T08:30:13;98771.24;;;21.12;15.70
69689;BME280;56932;38.402;-96.176;2023-02-17T08:32:39;98771.46;;;20.39;15.77
69689;BME280;56932;38.402;-96.176;2023-02-17T08:35:04;98771.92;;;20.97;15.73
69689;BME280;56932;38.402;-96.176;2023-02-17T08:37:29;98772.47;;;21.00;15.64
69689;BME280;56932;38.402;-96.176;2023-02-17T08:39:55;98773.09;;;21.20;15.67
69689;BME280;56932;38.402;-96.176;2023-02-17T08:42:20;98775.36;;;20.89;15.65
69689;BME280;56932;38.402;-96.176;2023-02-17T08:44:46;98777.94;;;20.64;15.66
69689;BME280;56932;38.402;-96.176;2023-02-17T08:47:11;98777.29;;;20.84;15.79
69689;BME280;56932;38.402;-96.176;2023-02-17T08:49:37;98776.90;;;20.11;15.81
69689;BME280;56932;38.402;-96.176;2023-02-17T08:52:03;98774.13;;;20.45;15.83
69689;BME280;56932;38.402;-96.176;2023-02-17T08:54:28;98775.76;;;20.78;15.78
69689;BME280;56932;38.402;-96.176;2023-02-17T08:56:53;98779.52;;;20.70;15.60
69689;BME280;56932;38.402;-96.176;2023-02-17T08:59:19;98780.00;;;20.91;15.60
69689;BME280;56932;38.402;-96.176;2023-02-17T09:01:45;98775.34;;;20.41;15.72
69689;BME280;56932;38.402;-96.176;2023-02-17T09:04:12;98779.38;;;20.36;15.72
69689;BME280;56932;38.402;-96.176;2023-02-17T09:06:38;98781.54;;;20.07;15.72
69689;BME280;56932;38.402;-96.176;2023-02-17T09:09:03;98783.47;;;20.48;15.72
69689;BME280;56932;38.402;-96.176;2023-02-17T09:11:27;98783.27;;;20.44;15.75
69689;BME280;56932;38.402;-96.176;2023-02-17T09:13:52;98791.75;;;19.91;16.01
69689;BME280;56932;38.402;-96.176;2023-02-17T09:16:18;98790.48;;;20.88;15.69
69689;BME280;56932;38.402;-96.176;2023-02-17T09:18:43;98790.63;;;19.70;15.83
69689;BME280;56932;38.402;-96.176;2023-02-17T09:21:12;98786.85;;;19.90;15.81
69689;BME280;56932;38.402;-96.176;2023-02-17T09:23:35;98783.92;;;20.24;15.79
69689;BME280;56932;38.402;-96.176;2023-02-17T09:26:02;98783.17;;;20.19;15.90
69689;BME280;56932;38.402;-96.176;2023-02-17T09:28:26;98782.79;;;20.07;15.79
69689;BME280;56932;38.402;-96.176;2023-02-17T09:30:51;98780.83;;;19.88;16.08
69689;BME280;56932;38.402;-96.176;2023-02-17T09:33:17;98783.24;;;20.10;15.89
69689;BME280;56932;38.402;-96.176;2023-02-17T09:35:43;98784.59;;;19.81;15.74
69689;BME280;56932;38.402;-96.176;2023-02-17T09:38:08;98775.58;;;19.44;16.20
69689;BME280;56932;38.402;-96.176;2023-02-17T09:40:40;98773.33;;;19.22;16.21
69689;BME280;56932;38.402;-96.176;2023-02-17T09:42:59;98772.42;;;20.14;15.78
69689;BME280;56932;38.402;-96.176;2023-02-17T09:45:28;98770.77;;;19.52;15.99
69689;BME280;56932;38.402;-96.176;2023-02-17T09:47:52;98768.89;;;19.57;15.92
69689;BME280;56932;38.402;-96.176;2023-02-17T09:50:19;98769.06;;;19.75;15.91
69689;BME280;56932;38.402;-96.176;2023-02-17T09:52:46;98768.10;;;19.40;15.96
69689;BME280;56932;38.402;-96.176;2023-02-17T09:55:09;98766.03;;;19.53;16.18
69689;BME280;56932;38.402;-96.176;2023-02-17T09:57:36;98765.95;;;19.74;15.91
69689;BME280;56932;38.402;-96.176;2023-02-17T10:00:03;98767.39;;;19.49;16.04
69689;BME280;56932;38.402;-96.176;2023-02-17T10:02:39;98767.14;;;19.65;15.96
69689;BME280;56932;38.402;-96.176;2023-02-17T10:04:50;98766.96;;;18.59;16.74
69689;BME280;56932;38.402;-96.176;2023-02-17T10:07:19;98768.10;;;18.78;16.72
69689;BME280;56932;38.402;-96.176;2023-02-17T10:09:46;98770.30;;;17.69;17.15
69689;BME280;56932;38.402;-96.176;2023-02-17T10:12:11;98771.58;;;18.03;17.47
69689;BME280;56932;38.402;-96.176;2023-02-17T10:14:35;98774.23;;;18.11;17.46
69689;BME280;56932;38.402;-96.176;2023-02-17T10:17:01;98781.29;;;17.71;17.78
69689;BME280;56932;38.402;-96.176;2023-02-17T10:19:26;98786.66;;;17.68;17.85
69689;BME280;56932;38.402;-96.176;2023-02-17T10:21:54;98792.05;;;17.54;17.82
69689;BME280;56932;38.402;-96.176;2023-02-17T10:24:13;98791.51;;;17.80;17.90
69689;BME280;56932;38.402;-96.176;2023-02-17T10:26:50;98791.52;;;17.15;17.90
69689;BME280;56932;38.402;-96.176;2023-02-17T10:29:10;98788.40;;;18.22;17.72
69689;BME280;56932;38.402;-96.176;2023-02-17T10:31:40;98787.00;;;17.94;17.80
69689;BME280;56932;38.402;-96.176;2023-02-17T10:34:01;98789.47;;;18.09;17.77
69689;BME280;56932;38.402;-96.176;2023-02-17T10:36:24;98789.07;;;18.74;17.56
69689;BME280;56932;38.402;-96.176;2023-02-17T10:38:51;98791.25;;;18.24;17.61
69689;BME280;56932;38.402;-96.176;2023-02-17T10:41:14;98787.95;;;18.64;17.54
69689;BME280;56932;38.402;-96.176;2023-02-17T10:43:38;98790.38;;;18.21;17.60
69689;BME280;56932;38.402;-96.176;2023-02-17T10:46:06;98791.50;;;18.67;17.61
69689;BME280;56932;38.402;-96.176;2023-02-17T10:48:33;98790.07;;;18.73;17.62
69689;BME280;56932;38.402;-96.176;2023-02-17T10:50:57;98788.64;;;18.94;17.52
69689;BME280;56932;38.402;-96.176;2023-02-17T10:53:22;98791.04;;;19.25;17.38
69689;BME280;56932;38.402;-96.176;2023-02-17T10:55:53;98793.89;;;18.45;17.46
69689;BME280;56932;38.402;-96.176;2023-02-17T10:58:14;98791.64;;;19.05;17.41
69689;BME280;56932;38.402;-96.176;2023-02-17T11:00:37;98795.26;;;18.58;17.42
69689;BME280;56932;38.402;-96.176;2023-02-17T11:03:02;98795.07;;;18.99;17.49
69689;BME280;56932;38.402;-96.176;2023-02-17T11:05:30;98792.10;;;19.01;17.65
69689;BME280;56932;38.402;-96.176;2023-02-17T11:07:56;98797.78;;;19.09;17.45
69689;BME280;56932;38.402;-96.176;2023-02-17T11:10:21;98796.12;;;18.90;17.61
69689;BME280;56932;38.402;-96.176;2023-02-17T11:12:44;98799.33;;;18.87;17.49
69689;BME280;56932;38.402;-96.176;2023-02-17T11:15:16;98799.73;;;19.02;17.23
69689;BME280;56932;38.402;-96.176;2023-02-17T11:17:38;98799.07;;;18.11;17.66
69689;BME280;56932;38.402;-96.176;2023-02-17T11:20:03;98804.40;;;19.27;17.54
69689;BME280;56932;38.402;-96.176;2023-02-17T11:22:32;98807.36;;;19.31;17.53
69689;BME280;56932;38.402;-96.176;2023-02-17T11:24:57;98808.77;;;19.21;17.61
69689;BME280;56932;38.402;-96.176;2023-02-17T11:27:23;98808.90;;;18.72;17.92
69689;BME280;56932;38.402;-96.176;2023-02-17T11:29:43;98810.08;;;18.70;17.44
69689;BME280;56932;38.402;-96.176;2023-02-17T11:32:10;98809.70;;;18.85;17.52
69689;BME280;56932;38.402;-96.176;2023-02-17T11:34:36;98808.98;;;18.80;17.54
69689;BME280;56932;38.402;-96.176;2023-02-17T11:37:02;98806.90;;;18.79;17.49
69689;BME280;56932;38.402;-96.176;2023-02-17T11:39:25;98805.52;;;19.22;17.21
69689;BME280;56932;38.402;-96.176;2023-02-17T11:41:50;98807.06;;;19.20;17.34
69689;BME280;56932;38.402;-96.176;2023-02-17T11:44:22;98807.26;;;19.13;17.21
69689;BME280;56932;38.402;-96.176;2023-02-17T11:46:48;98806.57;;;19.44;16.64
69689;BME280;56932;38.402;-96.176;2023-02-17T11:51:42;98808.58;;;19.39;16.93
69689;BME280;56932;38.402;-96.176;2023-02-17T11:54:03;98808.06;;;20.29;16.03
69689;BME280;56932;38.402;-96.176;2023-02-17T11:56:29;98806.79;;;20.22;16.02
69689;BME280;56932;38.402;-96.176;2023-02-17T11:59:01;98807.06;;;19.97;16.29
69689;BME280;56932;38.402;-96.176;2023-02-17T12:01:26;98807.18;;;21.12;15.71
69689;BME280;56932;38.402;-96.176;2023-02-17T12:06:13;98805.78;;;21.25;15.40
69689;BME280;56932;38.402;-96.176;2023-02-17T12:08:41;98811.35;;;21.05;15.47
69689;BME280;56932;38.402;-96.176;2023-02-17T12:11:05;98809.50;;;21.20;15.38
69689;BME280;56932;38.402;-96.176;2023-02-17T12:13:32;98810.79;;;21.08;15.43
69689;BME280;56932;38.402;-96.176;2023-02-17T12:15:55;98807.50;;;21.26;15.34
69689;BME280;56932;38.402;-96.176;2023-02-17T12:18:24;98807.49;;;21.31;15.17
69689;BME280;56932;38.402;-96.176;2023-02-17T12:20:48;98810.04;;;20.29;15.35
69689;BME280;56932;38.402;-96.176;2023-02-17T12:23:15;98809.46;;;20.82;15.35
69689;BME280;56932;38.402;-96.176;2023-02-17T12:25:33;98808.11;;;20.83;15.27
69689;BME280;56932;38.402;-96.176;2023-02-17T12:28:04;98804.81;;;20.88;15.25
69689;BME280;56932;38.402;-96.176;2023-02-17T12:30:30;98803.42;;;20.84;15.31
69689;BME280;56932;38.402;-96.176;2023-02-17T12:32:59;98806.83;;;20.60;15.15
69689;BME280;56932;38.402;-96.176;2023-02-17T12:35:16;98805.73;;;20.91;15.22
69689;BME280;56932;38.402;-96.176;2023-02-17T12:37:46;98804.56;;;20.29;15.20
69689;BME280;56932;38.402;-96.176;2023-02-17T12:40:06;98799.75;;;20.85;15.19
69689;BME280;56932;38.402;-96.176;2023-02-17T12:42:33;98798.55;;;20.98;15.09